Aeroboteco Virtual Airlines! Uma nuvem a frente.



 INFORMAÇÕES METEOROLÓGICAS
METAR FOR HETR
ADDS - METARS form results

(0558 UTC 28 October 2020)
Data provider http://aviationweather.gov/metar/data/
 
Forecast for: HETR (EL TOR , EG)
Text: TAF HETR 280500Z 2806/2912 31010G20KT CAVOK
Forecast period: 0600 UTC 28 October 2020 to 1200 UTC 29 October 2020
Forecast type: FROM: standard forecast or significant change
Winds: from the NW (310 degrees) at 12 MPH (10 knots; 5.1 m/s)
gusting to 23 MPH (20 knots; 10.3 m/s)
Visibility: 6 or more miles (10+ km)
Ceiling: unknown
Clouds: missing
Weather: NSW  (no significant weather)

 MAPA DO AEROPORTO

 INFORMAÇÕES DA PISTA
Pista 10 Tamanho da pista 9843 ft Largura da pista 148 ft
Elevação da pista 19 ft Ranhura da pista 0 ft Proa da pista 104
Pista 28 Tamanho da pista 9843 ft Largura da pista 148 ft
Elevação da pista 115 ft Ranhura da pista 0 ft Proa da pista 284

 FREQUÊNCIAS DO AEROPORTO
Tipo GND Nome GND Frequência 121.9 MHZ
Tipo RDO Nome RDO Frequência 579 MHZ
Tipo TWR Nome TWR Frequência 121.3 MHZ

 AUXÍLIOS DE NAVEGAÇÃO PRÓXIMOS AO AEROPORTO